createdAt,value
2018-11-22T12:16:05.401Z,15.48
2018-11-22T12:18:39.469Z,16.60
2018-11-22T12:21:09.417Z,16.35
2018-11-22T12:23:40.333Z,15.30
2018-11-22T12:26:12.201Z,15.65
2018-11-22T12:28:42.637Z,15.93
2018-11-22T12:31:15.889Z,14.90
2018-11-22T12:33:54.189Z,14.73
2018-11-22T12:36:29.169Z,14.30
2018-11-22T12:38:59.949Z,15.83
2018-11-22T12:41:29.805Z,15.00
2018-11-22T12:43:59.717Z,14.85
2018-11-22T12:46:33.932Z,15.40
2018-11-22T12:49:05.285Z,14.23
2018-11-22T12:51:36.124Z,15.35
2018-11-22T12:54:06.009Z,14.75
2018-11-22T12:56:41.793Z,14.63
2018-11-22T12:59:15.141Z,14.60
2018-11-22T13:01:44.965Z,15.45
2018-11-22T13:04:14.765Z,14.05
2018-11-22T13:06:48.861Z,14.70
2018-11-22T13:09:19.717Z,14.58
2018-11-22T13:11:50.518Z,15.20
2018-11-22T13:14:26.949Z,14.93
2018-11-22T13:16:56.877Z,16.75
2018-11-22T13:19:29.801Z,16.95
2018-11-22T13:21:59.726Z,16.27
2018-11-22T13:24:30.565Z,16.45
2018-11-22T13:27:00.400Z,15.25
2018-11-22T13:29:33.369Z,14.90
2018-11-22T13:32:04.212Z,16.65
2018-11-22T13:34:36.113Z,17.30
2018-11-22T13:37:06.022Z,15.78
2018-11-22T13:39:42.441Z,15.68
2018-11-22T13:42:13.233Z,15.75
2018-11-22T13:44:43.021Z,15.35
2018-11-22T13:47:18.949Z,17.40
2018-11-22T13:49:56.529Z,16.70
2018-11-22T13:52:37.250Z,18.40
2018-11-22T13:55:04.494Z,17.67
2018-11-22T13:57:34.746Z,20.15
2018-11-22T14:00:11.838Z,18.75
2018-11-22T14:02:42.762Z,17.60
2018-11-22T14:05:18.366Z,17.50
2018-11-22T14:07:49.188Z,18.32
2018-11-22T14:10:21.514Z,17.77
2018-11-22T14:12:52.419Z,20.68
2018-11-22T14:15:39.134Z,18.75
2018-11-22T14:18:16.504Z,17.37
2018-11-22T14:20:46.402Z,18.65
2018-11-22T14:23:21.621Z,19.17
2018-11-22T14:25:52.450Z,19.23
2018-11-22T14:28:24.354Z,17.80
2018-11-22T14:30:57.294Z,18.75
2018-11-22T14:33:27.126Z,18.12
2018-11-22T14:35:57.993Z,19.32
2018-11-22T14:38:27.894Z,18.30
2018-11-22T14:40:57.902Z,17.80
2018-11-22T14:43:29.126Z,18.32
2018-11-22T14:46:03.517Z,18.85
2018-11-22T14:48:38.866Z,18.57
2018-11-22T14:51:18.667Z,17.77
2018-11-22T14:53:50.681Z,19.73
2018-11-22T14:56:20.526Z,18.65
2018-11-22T14:58:53.558Z,18.92
2018-11-22T15:01:23.741Z,18.02
2018-11-22T15:03:53.538Z,17.55
2018-11-22T15:06:23.354Z,18.45
2018-11-22T15:08:53.853Z,18.00
2018-11-22T15:11:24.626Z,17.55
2018-11-22T15:13:58.422Z,17.60
2018-11-22T15:16:32.766Z,17.65
2018-11-22T15:19:03.674Z,16.00
2018-11-22T15:21:41.315Z,18.17
2018-11-22T15:24:11.084Z,19.05
2018-11-22T15:26:49.086Z,17.00
2018-11-22T15:29:20.845Z,15.83
2018-11-22T15:31:53.197Z,17.62
2018-11-22T15:34:32.694Z,17.62
2018-11-22T15:37:02.554Z,16.30
2018-11-22T15:39:33.326Z,15.58
2018-11-22T15:42:04.151Z,17.55
2018-11-22T15:44:37.750Z,17.40
2018-11-22T15:47:07.690Z,17.25
2018-11-22T15:49:40.654Z,16.48
2018-11-22T15:52:10.576Z,17.77
2018-11-22T15:54:42.382Z,18.70
2018-11-22T15:57:12.202Z,17.48
2018-11-22T15:59:45.882Z,18.92
2018-11-22T16:02:17.783Z,18.85
2018-11-22T16:04:51.306Z,18.98
2018-11-22T16:07:23.302Z,18.75
2018-11-22T16:09:55.081Z,18.32
2018-11-22T16:12:26.970Z,18.80
2018-11-22T16:15:02.214Z,19.25
2018-11-22T16:17:32.105Z,17.73
2018-11-22T16:20:02.946Z,19.67
2018-11-22T16:22:32.726Z,19.05
2018-11-22T16:25:03.549Z,20.85
2018-11-22T16:27:33.409Z,20.25
2018-11-22T16:30:05.229Z,19.48
2018-11-22T16:32:38.946Z,20.05
2018-11-22T16:35:13.966Z,18.87
2018-11-22T16:37:47.698Z,18.48
2018-11-22T16:40:18.799Z,19.20
2018-11-22T16:43:00.577Z,19.40
2018-11-22T16:45:37.079Z,23.15
2018-11-22T16:48:13.533Z,22.00
2018-11-22T16:50:46.593Z,20.05
2018-11-22T16:53:21.900Z,20.62
2018-11-22T16:55:54.313Z,18.90
2018-11-22T16:58:27.344Z,21.07
2018-11-22T17:01:00.453Z,20.62
2018-11-22T17:03:39.913Z,21.40
2018-11-22T17:06:10.737Z,20.68
2018-11-22T17:08:41.553Z,23.22
2018-11-22T17:11:15.187Z,21.68
2018-11-22T17:13:45.628Z,21.60
2018-11-22T17:16:20.021Z,22.48
2018-11-22T17:18:50.847Z,20.37
2018-11-22T17:21:20.761Z,20.50
2018-11-22T17:23:53.628Z,17.67
2018-11-22T17:26:23.473Z,21.07
2018-11-22T17:28:53.380Z,21.87
2018-11-22T17:31:23.381Z,21.30
2018-11-22T17:33:54.132Z,20.70
2018-11-22T17:36:24.144Z,20.92
2018-11-22T17:38:59.021Z,19.05
2018-11-22T17:41:29.929Z,22.90
2018-11-22T17:43:59.949Z,20.25
2018-11-22T17:46:30.776Z,20.70
2018-11-22T17:49:00.709Z,21.80
2018-11-22T17:51:33.772Z,19.62
2018-11-22T17:54:03.933Z,20.27
2018-11-22T17:56:37.280Z,20.97
2018-11-22T17:59:07.194Z,19.55
2018-11-22T18:01:37.153Z,18.85
2018-11-22T18:04:10.686Z,20.65
2018-11-22T18:06:41.505Z,22.00
2018-11-22T18:09:11.709Z,21.02
2018-11-22T18:11:42.573Z,20.35
2018-11-22T18:14:16.484Z,21.48
2018-11-22T18:16:46.301Z,20.45
2018-11-22T18:19:18.241Z,21.75
2018-11-22T18:21:49.132Z,21.55
2018-11-22T18:24:20.969Z,19.55
2018-11-22T18:26:51.825Z,20.32
2018-11-22T18:29:21.645Z,20.50
2018-11-22T18:31:51.533Z,19.92
2018-11-22T18:34:26.468Z,21.60
2018-11-22T18:36:56.341Z,21.73
2018-11-22T18:39:27.120Z,21.37
2018-11-22T18:41:57.156Z,20.30
2018-11-22T18:44:33.884Z,20.05
2018-11-22T18:47:03.713Z,21.33
2018-11-22T18:49:33.689Z,20.15
2018-11-22T18:52:03.545Z,22.10
2018-11-22T18:54:33.417Z,21.27
2018-11-22T18:57:04.585Z,20.60
2018-11-22T18:59:35.437Z,20.80
2018-11-22T19:02:05.904Z,21.87
2018-11-22T19:04:35.797Z,20.20
2018-11-22T19:07:07.653Z,21.23
2018-11-22T19:09:41.733Z,20.45
2018-11-22T19:12:18.291Z,22.52
2018-11-22T19:14:50.185Z,20.48
2018-11-22T19:17:20.101Z,24.23
2018-11-22T19:19:50.053Z,22.50
2018-11-22T19:22:21.472Z,22.13
2018-11-22T19:24:52.296Z,23.92
2018-11-22T19:27:23.129Z,23.42
2018-11-22T19:29:53.154Z,21.93
2018-11-22T19:32:24.934Z,23.40
2018-11-22T19:35:00.729Z,23.42
2018-11-22T19:37:31.549Z,23.85
2018-11-22T19:40:03.625Z,22.82
2018-11-22T19:42:36.705Z,22.22
2018-11-22T19:45:09.201Z,20.88
2018-11-22T19:47:39.065Z,20.25
2018-11-22T19:50:13.522Z,19.87
2018-11-22T19:52:45.135Z,21.10
2018-11-22T19:55:18.645Z,21.15
2018-11-22T19:57:51.095Z,22.10
2018-11-22T20:00:22.675Z,21.33
2018-11-22T20:02:54.331Z,22.58
2018-11-22T20:05:26.089Z,23.30
2018-11-22T20:08:00.412Z,25.05
2018-11-22T20:10:35.441Z,24.30
2018-11-22T20:13:07.313Z,27.17
2018-11-22T20:15:41.937Z,22.95
2018-11-22T20:18:12.437Z,24.10
2018-11-22T20:20:49.968Z,24.77
2018-11-22T20:23:21.960Z,24.45
2018-11-22T20:26:01.025Z,27.42
2018-11-22T20:28:48.237Z,25.72
2018-11-22T20:31:18.117Z,26.57
2018-11-22T20:33:49.078Z,27.80
2018-11-22T20:36:20.929Z,27.95
2018-11-22T20:38:50.797Z,27.70
2018-11-22T20:41:23.821Z,27.42
2018-11-22T20:43:53.737Z,28.42
2018-11-22T20:46:23.629Z,29.00
2018-11-22T20:48:57.245Z,28.70
2018-11-22T20:51:36.613Z,29.42
2018-11-22T20:54:16.305Z,31.70
2018-11-22T20:56:49.621Z,30.05
2018-11-22T20:59:21.461Z,29.65
2018-11-22T21:01:56.762Z,29.55
2018-11-22T21:04:26.564Z,29.80
2018-11-22T21:06:58.405Z,30.72
2018-11-22T21:09:32.192Z,31.80
2018-11-22T21:12:02.105Z,31.70
2018-11-22T21:14:39.525Z,30.35
2018-11-22T21:17:12.838Z,28.95
2018-11-22T21:19:45.785Z,29.30
2018-11-22T21:22:16.821Z,30.90
2018-11-22T21:24:47.685Z,32.23
2018-11-22T21:27:24.070Z,31.60
2018-11-22T21:29:55.985Z,32.85
2018-11-22T21:32:25.757Z,29.40
2018-11-22T21:34:56.633Z,28.67
2018-11-22T21:37:29.849Z,29.65
2018-11-22T21:39:59.806Z,30.80
2018-11-22T21:42:31.377Z,31.80
2018-11-22T21:45:02.153Z,28.87
2018-11-22T21:47:33.985Z,29.95
2018-11-22T21:50:04.142Z,30.15
2018-11-22T21:52:37.557Z,30.48
2018-11-22T21:55:10.787Z,32.42
2018-11-22T21:57:41.462Z,30.90
2018-11-22T22:00:19.382Z,31.12
2018-11-22T22:02:52.961Z,32.33
2018-11-22T22:05:29.593Z,31.35
2018-11-22T22:08:05.746Z,30.32
2018-11-22T22:10:37.610Z,27.22
2018-11-22T22:13:07.524Z,28.83
2018-11-22T22:15:37.858Z,32.65
2018-11-22T22:18:09.231Z,30.88
2018-11-22T22:20:40.084Z,27.45
2018-11-22T22:23:13.576Z,29.02
2018-11-22T22:25:53.870Z,29.67
2018-11-22T22:28:23.792Z,31.97
2018-11-22T22:30:53.958Z,32.90
2018-11-22T22:33:23.833Z,31.02
2018-11-22T22:35:54.626Z,29.72
2018-11-22T22:38:24.482Z,30.30
2018-11-22T22:40:54.414Z,30.55
2018-11-22T22:43:24.310Z,30.17
2018-11-22T22:45:57.110Z,28.40
2018-11-22T22:48:28.012Z,30.52
2018-11-22T22:50:58.906Z,28.60
2018-11-22T22:53:29.757Z,28.20
2018-11-22T22:56:00.698Z,27.30
2018-11-22T22:58:30.566Z,28.50
2018-11-22T23:01:02.885Z,27.48
2018-11-22T23:03:32.773Z,26.37
2018-11-22T23:06:04.565Z,29.65
2018-11-22T23:08:34.777Z,27.15
2018-11-22T23:11:04.678Z,31.55
2018-11-22T23:13:35.366Z,29.37
2018-11-22T23:16:05.278Z,26.70
2018-11-22T23:18:36.098Z,28.67
2018-11-22T23:21:06.090Z,29.60
2018-11-22T23:23:35.938Z,29.00
2018-11-22T23:26:06.046Z,28.38
2018-11-22T23:28:35.862Z,27.55
2018-11-22T23:31:06.354Z,25.50
2018-11-22T23:33:36.191Z,28.20
2018-11-22T23:36:06.146Z,27.30
2018-11-22T23:38:37.093Z,28.47
2018-11-22T23:41:06.965Z,27.42
2018-11-22T23:43:36.794Z,29.20
2018-11-22T23:46:06.875Z,30.12
2018-11-22T23:48:36.674Z,29.75
2018-11-22T23:51:06.538Z,29.55
2018-11-22T23:53:36.482Z,29.63
2018-11-22T23:56:07.386Z,32.42
2018-11-22T23:58:37.197Z,31.90
